METAR Data
IDs: Format: Raw Decoded Include TAF

Data at: 0853 UTC 23 Sep 2018

KFNB 230753Z AUTO 00000KT 10SM CLR 10/08 A3007 RMK AO2 SLP179 T01000083
KFNB 230653Z AUTO 00000KT 10SM CLR 11/09 A3007 RMK AO2 SLP181 T01060089
KFNB 230553Z AUTO 00000KT 10SM CLR 11/08 A3008 RMK AO2 SLP184 T01110083 10194 20111 402280067 57008
KFNB 230453Z AUTO 15004KT 10SM CLR 12/08 A3009 RMK AO2 SLP188 T01170083
KFNB 230353Z AUTO 13003KT 10SM CLR 14/09 A3010 RMK AO2 SLP190 T01390089
KFNB 230253Z AUTO 14003KT 10SM CLR 15/09 A3011 RMK AO2 SLP193 T01500089 53003
KFNB 230153Z AUTO 12004KT 10SM CLR 15/09 A3010 RMK AO2 SLP191 T01500089
KFNB 230053Z AUTO 13004KT 10SM CLR 17/09 A3009 RMK AO2 SLP190 T01670089
KFNB 222353Z AUTO 10006KT 10SM CLR 19/09 A3010 RMK AO2 SLP191 T01940089 10228 20183 56012
KFNB 222253Z AUTO 10007KT 10SM CLR 22/08 A3010 RMK AO2 SLP191 T02170078
KFNB 222153Z AUTO 12007KT 10SM CLR 22/07 A3011 RMK AO2 SLP194 T02220067
KFNB 222053Z AUTO 00000KT 10SM CLR 22/07 A3014 RMK AO2 SLP202 T02220072 56030
KFNB 221953Z AUTO VRB04KT 10SM CLR 21/07 A3016 RMK AO2 SLP211 T02110067
KFNB 221853Z AUTO 08004KT 10SM CLR 20/07 A3019 RMK AO2 SLP222 T02000072
KFNB 221753Z AUTO 10SM CLR 19/07 A3023 RMK AO2 SLP233 T01890072 10189 20067 58021
KFNB 221653Z AUTO VRB04KT 10SM CLR 17/08 A3026 RMK AO2 SLP245 T01670078
KFNB 221553Z AUTO 13007KT 10SM CLR 14/08 A3028 RMK AO2 SLP253 T01440078
KFNB 221453Z AUTO 13006KT 10SM CLR 13/08 A3029 RMK AO2 SLP257 T01280078 58003
KFNB 221353Z AUTO 10003KT 10SM CLR 10/07 A3030 RMK AO2 SLP261 T01000072
KFNB 221253Z AUTO 00000KT 10SM CLR 08/07 A3030 RMK AO2 SLP261 T00780067
KFNB 221153Z AUTO 35003KT 10SM CLR 07/06 A3030 RMK AO2 SLP261 T00670061 10111 20067 56001
KFNB 221053Z AUTO 00000KT 10SM CLR 07/07 A3030 RMK AO2 SLP260 T00720067
KFNB 220953Z AUTO 06004KT 10SM CLR 08/07 A3030 RMK AO2 SLP258 T00830067
KFNB 220853Z AUTO 05004KT 10SM CLR 09/07 A3030 RMK AO2 SLP260 T00890072 55003
KFNB 220753Z AUTO 06004KT 10SM CLR 09/08 A3030 RMK AO2 SLP259 T00940078
KFNB 220653Z AUTO 06005KT 10SM CLR 10/08 A3031 RMK AO2 SLP261 T01000078
KFNB 220553Z AUTO 04004KT 10SM CLR 11/08 A3031 RMK AO2 SLP261 T01110083 10167 20106 402000106 50004
KFNB 220453Z AUTO 34003KT 10SM CLR 11/09 A3031 RMK AO2 SLP263 T01060089
KFNB 220353Z AUTO 33003KT 10SM CLR 12/09 A3031 RMK AO2 SLP262 T01170089
KFNB 220253Z AUTO 35004KT 10SM CLR 13/09 A3030 RMK AO2 SLP258 T01280094 53016
KFNB 220153Z AUTO 34004KT 10SM CLR 14/09 A3028 RMK AO2 SLP252 T01390094
KFNB 220053Z AUTO 33005KT 10SM CLR 15/09 A3026 RMK AO2 SLP245 T01500094
KFNB 212353Z AUTO 33006KT 10SM CLR 17/08 A3025 RMK AO2 SLP240 T01670083 10200 20167 53010
KFNB 212253Z AUTO 01008G16KT 10SM CLR 18/08 A3024 RMK AO2 SLP237 T01830078
KFNB 212153Z AUTO 35010G18KT 10SM CLR 19/08 A3022 RMK AO2 SLP229 T01890078